createdAt,value
2018-08-20T00:01:55.797Z,12.47
2018-08-20T00:04:24.317Z,18.97
2018-08-20T00:06:56.575Z,11.90
2018-08-20T00:09:36.913Z,17.57
2018-08-20T00:12:06.959Z,13.80
2018-08-20T00:14:35.512Z,12.53
2018-08-20T00:17:04.237Z,13.70
2018-08-20T00:19:32.905Z,13.20
2018-08-20T00:22:02.355Z,10.93
2018-08-20T00:24:30.870Z,15.13
2018-08-20T00:27:01.179Z,12.53
2018-08-20T00:29:29.824Z,12.43
2018-08-20T00:31:58.326Z,10.70
2018-08-20T00:34:26.809Z,14.37
2018-08-20T00:36:55.445Z,11.77
2018-08-20T00:39:23.957Z,11.90
2018-08-20T00:41:52.453Z,10.80
2018-08-20T00:44:21.049Z,11.40
2018-08-20T00:46:49.620Z,11.87
2018-08-20T00:49:18.219Z,11.20
2018-08-20T00:51:46.867Z,10.67
2018-08-20T00:54:15.373Z,11.60
2018-08-20T00:56:44.036Z,8.60
2018-08-20T00:59:12.687Z,13.57
2018-08-20T01:01:41.185Z,10.30
2018-08-20T01:04:09.784Z,12.00
2018-08-20T01:06:38.256Z,10.97
2018-08-20T01:09:08.242Z,12.37
2018-08-20T01:11:36.984Z,13.47
2018-08-20T01:14:05.803Z,13.93
2018-08-20T01:16:35.525Z,12.03
2018-08-20T01:19:04.134Z,10.60
2018-08-20T01:21:32.632Z,10.33
2018-08-20T01:24:01.179Z,10.43
2018-08-20T01:26:29.665Z,14.27
2018-08-20T01:28:58.164Z,11.23
2018-08-20T01:31:26.744Z,12.47
2018-08-20T01:33:55.249Z,12.53
2018-08-20T01:36:23.841Z,11.90
2018-08-20T01:38:52.385Z,11.37
2018-08-20T01:41:20.885Z,10.10
2018-08-20T01:43:49.456Z,12.77
2018-08-20T01:46:17.964Z,15.13
2018-08-20T01:48:46.497Z,11.47
2018-08-20T01:51:15.045Z,14.67
2018-08-20T01:53:43.538Z,13.07
2018-08-20T01:56:12.146Z,12.90
2018-08-20T01:58:40.710Z,16.07
2018-08-20T02:01:09.390Z,14.47
2018-08-20T02:03:37.911Z,19.40
2018-08-20T02:06:06.491Z,17.50
2018-08-20T02:08:35.492Z,16.23
2018-08-20T02:11:04.111Z,15.03
2018-08-20T02:13:32.593Z,15.07
2018-08-20T02:16:01.248Z,19.43
2018-08-20T02:18:29.747Z,18.17
2018-08-20T02:20:58.266Z,16.97
2018-08-20T02:23:26.751Z,17.00
2018-08-20T02:25:55.396Z,23.10
2018-08-20T02:28:24.436Z,17.57
2018-08-20T02:30:52.922Z,20.20
2018-08-20T02:33:21.491Z,16.93
2018-08-20T02:35:50.167Z,17.90
2018-08-20T02:38:18.680Z,17.17
2018-08-20T02:40:47.200Z,17.33
2018-08-20T02:43:15.769Z,15.77
2018-08-20T02:45:44.255Z,18.93
2018-08-20T02:48:12.773Z,18.40
2018-08-20T02:50:41.307Z,18.97
2018-08-20T02:53:09.849Z,16.53
2018-08-20T02:55:38.350Z,18.37
2018-08-20T02:58:06.898Z,19.53
2018-08-20T03:00:35.483Z,18.63
2018-08-20T03:03:04.909Z,21.63
2018-08-20T03:05:34.404Z,15.93
2018-08-20T03:08:02.995Z,18.23
2018-08-20T03:10:31.637Z,20.77
2018-08-20T03:13:00.372Z,20.13
2018-08-20T03:15:28.879Z,20.37
2018-08-20T03:17:57.393Z,19.00
2018-08-20T03:20:26.022Z,19.83
2018-08-20T03:22:54.684Z,22.60
2018-08-20T03:25:23.256Z,20.50
2018-08-20T03:27:51.827Z,22.37
2018-08-20T03:30:20.329Z,19.57
2018-08-20T03:32:48.891Z,25.03
2018-08-20T03:35:17.448Z,19.13
2018-08-20T03:37:46.168Z,19.73
2018-08-20T03:40:14.623Z,21.83
2018-08-20T03:42:43.323Z,23.50
2018-08-20T03:45:12.059Z,22.13
2018-08-20T03:47:40.616Z,23.20
2018-08-20T03:50:11.720Z,24.70
2018-08-20T03:52:40.331Z,22.40
2018-08-20T03:55:08.937Z,21.10
2018-08-20T03:57:37.963Z,24.83
2018-08-20T04:00:07.445Z,19.83
2018-08-20T04:02:36.019Z,24.63
2018-08-20T04:05:04.996Z,23.87
2018-08-20T04:07:33.542Z,22.80
2018-08-20T04:10:02.061Z,23.30
2018-08-20T04:12:30.632Z,23.80
2018-08-20T04:14:59.210Z,21.90
2018-08-20T04:17:27.702Z,22.33
2018-08-20T04:19:56.342Z,20.30
2018-08-20T04:22:24.890Z,27.50
2018-08-20T04:24:53.417Z,24.97
2018-08-20T04:27:21.909Z,21.10
2018-08-20T04:29:50.584Z,26.40
2018-08-20T04:32:19.656Z,23.17
2018-08-20T04:34:48.152Z,23.83
2018-08-20T04:37:16.679Z,24.57
2018-08-20T04:39:45.198Z,25.83
2018-08-20T04:42:13.824Z,23.53
2018-08-20T04:44:42.346Z,20.83
2018-08-20T04:47:10.853Z,21.00
2018-08-20T04:49:39.397Z,26.33
2018-08-20T04:52:07.937Z,21.23
2018-08-20T04:54:36.449Z,26.77
2018-08-20T04:57:05.022Z,25.83
2018-08-20T04:59:33.658Z,26.13
2018-08-20T05:02:03.204Z,28.83
2018-08-20T05:04:31.700Z,29.33
2018-08-20T05:07:00.214Z,24.27
2018-08-20T05:09:28.898Z,26.47
2018-08-20T05:11:57.397Z,28.97
2018-08-20T05:14:25.907Z,24.73
2018-08-20T05:16:54.506Z,26.10
2018-08-20T05:19:23.072Z,30.27
2018-08-20T05:21:51.814Z,28.10
2018-08-20T05:24:20.430Z,26.53
2018-08-20T05:26:49.399Z,26.93
2018-08-20T05:29:17.917Z,29.63
2018-08-20T05:31:46.462Z,30.07
2018-08-20T05:34:14.990Z,30.50
2018-08-20T05:36:43.548Z,28.50
2018-08-20T05:39:12.630Z,29.20
2018-08-20T05:41:41.239Z,30.33
2018-08-20T05:44:10.220Z,23.90
2018-08-20T05:46:38.794Z,29.37
2018-08-20T05:49:10.321Z,32.33
2018-08-20T05:51:38.945Z,29.83
2018-08-20T05:54:07.464Z,26.50
2018-08-20T05:56:36.095Z,31.60
2018-08-20T05:59:04.752Z,24.77
2018-08-20T06:01:33.444Z,28.57
2018-08-20T06:04:01.994Z,31.30
2018-08-20T06:06:30.565Z,32.77
2018-08-20T06:08:59.150Z,29.23
2018-08-20T06:11:27.736Z,26.27
2018-08-20T06:13:57.437Z,32.30
2018-08-20T06:16:26.379Z,30.80
2018-08-20T06:18:54.901Z,28.40
2018-08-20T06:21:23.677Z,27.73
2018-08-20T06:23:52.213Z,31.33
2018-08-20T06:26:21.351Z,32.63
2018-08-20T06:28:50.057Z,32.97
2018-08-20T06:31:19.467Z,33.10
2018-08-20T06:33:48.390Z,29.20
2018-08-20T06:36:15.852Z,28.57
2018-08-20T06:38:44.408Z,27.60
2018-08-20T06:41:12.988Z,26.53
2018-08-20T06:43:41.555Z,25.40
2018-08-20T06:46:10.152Z,32.30
2018-08-20T06:48:38.704Z,29.80
2018-08-20T06:51:07.219Z,31.47
2018-08-20T06:53:35.777Z,30.37
2018-08-20T06:56:04.437Z,29.37
2018-08-20T06:58:33.042Z,25.83
2018-08-20T07:01:01.725Z,33.00
2018-08-20T07:03:30.233Z,29.43
2018-08-20T07:05:58.754Z,29.43
2018-08-20T07:08:27.375Z,26.80
2018-08-20T07:10:55.893Z,32.70
2018-08-20T07:13:29.970Z,26.37
2018-08-20T07:15:58.500Z,27.10
2018-08-20T07:18:27.036Z,28.87
2018-08-20T07:20:55.835Z,31.10
2018-08-20T07:23:24.475Z,23.93
2018-08-20T07:25:53.226Z,24.13
2018-08-20T07:28:22.362Z,27.50
2018-08-20T07:30:50.961Z,25.90
2018-08-20T07:33:19.533Z,29.00
2018-08-20T07:35:48.104Z,27.53
2018-08-20T07:38:16.702Z,28.20
2018-08-20T07:40:45.305Z,23.50
2018-08-20T07:43:13.836Z,22.63
2018-08-20T07:45:42.514Z,26.20
2018-08-20T07:48:11.617Z,23.00
2018-08-20T07:50:40.158Z,25.57
2018-08-20T07:53:08.865Z,27.27
2018-08-20T07:55:37.514Z,24.90
2018-08-20T07:58:06.966Z,19.13
2018-08-20T08:00:35.556Z,26.07
2018-08-20T08:03:04.203Z,24.20
2018-08-20T08:05:32.770Z,25.90
2018-08-20T08:08:01.482Z,21.57
2018-08-20T08:10:30.141Z,19.70
2018-08-20T08:12:58.836Z,18.83
2018-08-20T08:15:27.435Z,19.47
2018-08-20T08:17:55.963Z,17.30
2018-08-20T08:20:24.603Z,20.63
2018-08-20T08:22:53.097Z,19.23
2018-08-20T08:25:21.629Z,22.87
2018-08-20T08:27:50.229Z,22.33
2018-08-20T08:30:19.791Z,21.53
2018-08-20T08:32:48.444Z,19.53
2018-08-20T08:35:17.136Z,20.50
2018-08-20T08:37:45.738Z,23.17
2018-08-20T08:40:16.174Z,21.30
2018-08-20T08:42:45.297Z,16.07
2018-08-20T08:45:16.152Z,17.23
2018-08-20T08:47:45.397Z,18.93
2018-08-20T08:50:15.065Z,20.07
2018-08-20T08:52:43.668Z,23.07
2018-08-20T08:55:12.277Z,21.07
2018-08-20T08:57:40.856Z,18.67
2018-08-20T09:00:18.743Z,20.43
2018-08-20T09:02:47.672Z,20.77
2018-08-20T09:05:16.492Z,19.20
2018-08-20T09:07:45.093Z,14.10
2018-08-20T09:10:13.923Z,18.83
2018-08-20T09:12:42.643Z,22.07
2018-08-20T09:15:14.138Z,19.37
2018-08-20T09:17:42.850Z,10.93
2018-08-20T09:20:13.557Z,11.70
2018-08-20T09:22:42.097Z,11.50
2018-08-20T09:25:11.877Z,15.63
2018-08-20T09:27:41.523Z,14.73
2018-08-20T09:30:15.705Z,10.60
2018-08-20T09:32:45.093Z,11.43
2018-08-20T09:35:13.686Z,12.03
2018-08-20T09:37:43.448Z,12.47
2018-08-20T09:40:12.537Z,13.53
2018-08-20T09:42:41.844Z,9.03
2018-08-20T09:45:10.637Z,7.27
2018-08-20T09:47:40.188Z,9.07
2018-08-20T09:50:10.647Z,8.17
2018-08-20T09:52:39.282Z,7.83
2018-08-20T09:55:08.610Z,9.93
2018-08-20T09:57:37.154Z,6.47
2018-08-20T10:00:11.298Z,5.53
2018-08-20T10:02:39.910Z,5.13
2018-08-20T10:05:08.408Z,4.73
2018-08-20T10:07:37.312Z,5.57
2018-08-20T10:10:06.238Z,4.17
2018-08-20T10:12:34.745Z,3.80
2018-08-20T10:15:03.582Z,4.47
2018-08-20T10:17:32.096Z,4.37
2018-08-20T10:20:00.594Z,3.50
2018-08-20T10:22:29.121Z,5.03
2018-08-20T10:24:57.916Z,3.87
2018-08-20T10:27:26.419Z,4.57
2018-08-20T10:29:55.032Z,3.57
2018-08-20T10:32:23.673Z,3.13
2018-08-20T10:34:52.196Z,4.17
2018-08-20T10:37:20.748Z,2.63
2018-08-20T10:39:49.392Z,3.20
2018-08-20T10:42:18.383Z,2.40
2018-08-20T10:44:52.860Z,3.03
2018-08-20T10:47:22.025Z,3.50
2018-08-20T10:49:50.781Z,3.20
2018-08-20T10:52:19.986Z,1.97
2018-08-20T10:54:48.527Z,1.60
2018-08-20T10:57:17.082Z,2.37
2018-08-20T10:59:45.577Z,1.73
2018-08-20T11:02:14.158Z,2.30
2018-08-20T11:04:42.652Z,5.67
2018-08-20T11:07:11.193Z,3.27
2018-08-20T11:09:39.719Z,2.00
2018-08-20T11:12:08.326Z,2.13
2018-08-20T11:14:36.905Z,1.30
2018-08-20T11:17:05.451Z,4.37
2018-08-20T11:19:33.983Z,1.97
2018-08-20T11:22:02.464Z,1.50
2018-08-20T11:24:30.992Z,1.33
2018-08-20T11:26:59.545Z,2.10
2018-08-20T11:29:28.101Z,1.57
2018-08-20T11:31:56.731Z,1.17
2018-08-20T11:34:25.331Z,1.20
2018-08-20T11:36:53.824Z,1.67
2018-08-20T11:39:22.444Z,1.40
2018-08-20T11:41:51.133Z,2.07
2018-08-20T11:44:20.357Z,2.83
2018-08-20T11:46:49.210Z,2.00
2018-08-20T11:49:17.786Z,1.30
2018-08-20T11:51:46.234Z,1.17
2018-08-20T11:54:14.811Z,0.93
2018-08-20T11:56:43.393Z,1.20
2018-08-20T11:59:11.918Z,1.30
2018-08-20T12:01:40.496Z,1.20
2018-08-20T12:04:09.125Z,1.53
2018-08-20T12:06:37.680Z,2.20
2018-08-20T12:09:07.112Z,1.20
2018-08-20T12:11:35.703Z,1.00
2018-08-20T12:14:04.268Z,1.60
2018-08-20T12:16:33.032Z,0.87
2018-08-20T12:19:01.582Z,1.03
2018-08-20T12:21:30.411Z,1.03
2018-08-20T12:23:59.006Z,1.00
2018-08-20T12:26:27.487Z,1.27
2018-08-20T12:28:56.417Z,2.20
2018-08-20T12:31:25.001Z,1.30
2018-08-20T12:33:53.730Z,2.53
2018-08-20T12:36:22.417Z,1.00
2018-08-20T12:38:50.963Z,0.80
2018-08-20T12:41:19.470Z,1.43
2018-08-20T12:43:47.966Z,1.03
2018-08-20T12:46:18.992Z,1.00
2018-08-20T12:48:49.313Z,1.57
2018-08-20T12:51:18.109Z,1.00
2018-08-20T12:53:46.617Z,0.90
2018-08-20T12:56:15.188Z,2.77
2018-08-20T12:58:50.021Z,2.10
2018-08-20T13:01:19.063Z,1.17
2018-08-20T13:03:48.466Z,1.70
2018-08-20T13:06:17.281Z,2.67
2018-08-20T13:08:47.151Z,1.10
2018-08-20T13:11:16.019Z,2.57
2018-08-20T13:13:44.916Z,1.60
2018-08-20T13:16:13.939Z,1.10
2018-08-20T13:18:42.387Z,0.93
2018-08-20T13:21:10.983Z,0.90
2018-08-20T13:23:39.576Z,1.13
2018-08-20T13:26:08.142Z,1.87
2018-08-20T13:28:36.875Z,1.77
2018-08-20T13:31:05.528Z,4.13
2018-08-20T13:33:34.063Z,1.30
2018-08-20T13:36:02.653Z,1.07
2018-08-20T13:38:31.296Z,1.40
2018-08-20T13:40:59.912Z,1.23
2018-08-20T13:43:28.421Z,1.73
2018-08-20T13:45:57.017Z,1.57
2018-08-20T13:48:25.658Z,1.60
2018-08-20T13:50:55.109Z,1.80
2018-08-20T13:53:23.635Z,1.63
2018-08-20T13:55:52.176Z,2.10
2018-08-20T13:58:20.683Z,2.07
2018-08-20T14:00:49.220Z,1.60
2018-08-20T14:03:17.881Z,2.47
2018-08-20T14:05:46.647Z,2.97
2018-08-20T14:08:15.158Z,2.47
2018-08-20T14:10:43.780Z,1.73
2018-08-20T14:13:12.339Z,2.17
2018-08-20T14:15:40.890Z,4.23
2018-08-20T14:18:09.521Z,1.80
2018-08-20T14:20:38.088Z,3.40
2018-08-20T14:23:06.880Z,2.00
2018-08-20T14:25:35.404Z,1.63
2018-08-20T14:28:03.993Z,1.63
2018-08-20T14:30:32.812Z,3.00
2018-08-20T14:33:01.321Z,3.03
2018-08-20T14:35:29.816Z,1.20
2018-08-20T14:37:58.530Z,2.23
2018-08-20T14:40:27.037Z,3.07
2018-08-20T14:42:55.570Z,1.30
2018-08-20T14:45:24.155Z,2.40
2018-08-20T14:47:52.749Z,1.60
2018-08-20T14:50:21.286Z,1.87
2018-08-20T14:52:50.712Z,1.77
2018-08-20T14:55:19.455Z,1.20
2018-08-20T14:57:48.041Z,1.60
2018-08-20T15:00:18.226Z,2.13
2018-08-20T15:02:46.789Z,3.13
2018-08-20T15:05:15.347Z,1.73
2018-08-20T15:07:43.934Z,3.03
2018-08-20T15:10:12.461Z,1.30
2018-08-20T15:12:41.026Z,2.97
2018-08-20T15:15:09.675Z,2.87
2018-08-20T15:17:38.190Z,2.40
2018-08-20T15:20:07.743Z,2.10
2018-08-20T15:22:36.606Z,3.07
2018-08-20T15:25:05.915Z,2.40
2018-08-20T15:27:34.425Z,1.80
2018-08-20T15:30:03.028Z,2.83
2018-08-20T15:32:31.594Z,1.93
2018-08-20T15:35:00.461Z,2.50
2018-08-20T15:37:29.085Z,4.23
2018-08-20T15:39:57.725Z,2.23
2018-08-20T15:42:26.425Z,3.47
2018-08-20T15:44:54.969Z,2.13
2018-08-20T15:47:23.547Z,1.80
2018-08-20T15:49:52.150Z,4.87
2018-08-20T15:52:20.793Z,4.03
2018-08-20T15:54:49.328Z,2.00
2018-08-20T15:57:17.898Z,1.97
2018-08-20T15:59:46.493Z,2.60
2018-08-20T16:02:15.059Z,2.90
2018-08-20T16:04:43.545Z,2.00
2018-08-20T16:07:12.232Z,3.50
2018-08-20T16:09:40.799Z,6.40
2018-08-20T16:12:09.292Z,7.63
2018-08-20T16:14:38.160Z,3.87
2018-08-20T16:17:06.700Z,4.07
2018-08-20T16:19:35.210Z,1.53
2018-08-20T16:22:03.784Z,3.00
2018-08-20T16:24:32.373Z,4.00
2018-08-20T16:27:00.905Z,2.87
2018-08-20T16:29:29.659Z,2.07
2018-08-20T16:31:58.189Z,1.27
2018-08-20T16:34:26.759Z,1.00
2018-08-20T16:36:55.344Z,1.03
2018-08-20T16:39:24.025Z,1.43
2018-08-20T16:41:52.550Z,1.20
2018-08-20T16:44:21.138Z,1.30
2018-08-20T16:46:50.048Z,1.33
2018-08-20T16:49:18.563Z,1.47
2018-08-20T16:51:47.151Z,1.20
2018-08-20T16:54:16.123Z,1.17
2018-08-20T16:56:44.749Z,1.10
2018-08-20T16:59:13.369Z,1.40
2018-08-20T17:01:41.892Z,1.50
2018-08-20T17:04:30.658Z,4.07
2018-08-20T17:07:01.079Z,2.60
2018-08-20T17:09:30.127Z,1.80
2018-08-20T17:11:59.033Z,3.03
2018-08-20T17:14:27.536Z,1.50
2018-08-20T17:16:56.093Z,1.60
2018-08-20T17:19:24.633Z,2.10
2018-08-20T17:21:53.229Z,1.30
2018-08-20T17:24:29.944Z,1.73
2018-08-20T17:27:00.815Z,3.40
2018-08-20T17:29:29.444Z,2.03
2018-08-20T17:31:58.027Z,3.63
2018-08-20T17:34:26.675Z,4.20
2018-08-20T17:36:55.258Z,2.33
2018-08-20T17:39:24.144Z,2.90
2018-08-20T17:41:52.735Z,1.93
2018-08-20T17:44:23.017Z,2.57
2018-08-20T17:46:51.578Z,2.83
2018-08-20T17:49:25.310Z,4.30
2018-08-20T17:51:53.874Z,2.33
2018-08-20T17:54:22.450Z,3.00
2018-08-20T17:56:51.105Z,1.97
2018-08-20T17:59:20.734Z,2.57
2018-08-20T18:01:49.365Z,1.37
2018-08-20T18:04:19.408Z,2.27
2018-08-20T18:06:53.097Z,2.33
2018-08-20T18:09:21.754Z,2.70
2018-08-20T18:11:51.308Z,3.60
2018-08-20T18:14:22.414Z,1.80
2018-08-20T18:16:51.032Z,2.70
2018-08-20T18:19:19.646Z,1.73
2018-08-20T18:21:48.531Z,3.80
2018-08-20T18:24:22.333Z,1.60
2018-08-20T18:26:54.975Z,3.20
2018-08-20T18:29:23.541Z,3.10
2018-08-20T18:31:54.018Z,2.40
2018-08-20T18:34:22.745Z,2.67
2018-08-20T18:36:51.408Z,2.37
2018-08-20T18:39:20.128Z,2.50
2018-08-20T18:41:54.646Z,1.70
2018-08-20T18:44:23.664Z,3.30
2018-08-20T18:46:52.812Z,2.03
2018-08-20T18:49:22.373Z,1.60
2018-08-20T18:52:10.651Z,2.30
2018-08-20T18:54:56.309Z,2.00
2018-08-20T18:57:26.985Z,1.77
2018-08-20T18:59:57.977Z,2.13
2018-08-20T19:03:00.057Z,2.27
2018-08-20T19:05:29.152Z,6.50
2018-08-20T19:07:57.689Z,3.73
2018-08-20T19:10:29.728Z,2.47
2018-08-20T19:12:58.336Z,2.27
2018-08-20T19:15:40.498Z,1.67
2018-08-20T19:18:10.872Z,5.07
2018-08-20T19:20:40.224Z,2.73
2018-08-20T19:23:09.219Z,3.90
2018-08-20T19:25:38.166Z,3.73
2018-08-20T19:28:12.971Z,2.10
2018-08-20T19:30:41.732Z,2.67
2018-08-20T19:33:15.489Z,2.30
2018-08-20T19:35:44.042Z,2.87
2018-08-20T19:38:12.594Z,7.17
2018-08-20T19:40:41.168Z,3.23
2018-08-20T19:43:09.701Z,3.47
2018-08-20T19:45:43.714Z,2.53
2018-08-20T19:48:12.974Z,3.87
2018-08-20T19:50:42.409Z,2.50
2018-08-20T19:53:18.084Z,2.33
2018-08-20T19:55:46.713Z,3.17
2018-08-20T19:58:20.596Z,3.73
2018-08-20T20:01:19.768Z,3.20
2018-08-20T20:03:49.708Z,2.87
2018-08-20T20:06:18.439Z,4.10
2018-08-20T20:08:47.000Z,3.70
2018-08-20T20:11:22.125Z,3.57
2018-08-20T20:14:01.848Z,8.37
2018-08-20T20:16:37.799Z,3.50
2018-08-20T20:19:06.389Z,3.03
2018-08-20T20:21:35.121Z,2.70
2018-08-20T20:24:03.693Z,2.63
2018-08-20T20:26:32.331Z,8.60
2018-08-20T20:29:00.849Z,7.80
2018-08-20T20:31:29.423Z,3.97
2018-08-20T20:33:58.335Z,3.23
2018-08-20T20:36:32.157Z,3.20
2018-08-20T20:39:06.274Z,4.33
2018-08-20T20:41:34.827Z,7.30
2018-08-20T20:44:03.438Z,8.37
2018-08-20T20:46:32.304Z,3.17
2018-08-20T20:49:00.853Z,3.97
2018-08-20T20:51:29.423Z,4.03
2018-08-20T20:53:58.100Z,4.93
2018-08-20T20:56:26.603Z,4.17
2018-08-20T20:58:57.407Z,4.03
2018-08-20T21:01:25.962Z,4.70
2018-08-20T21:03:54.892Z,4.60
2018-08-20T21:06:24.829Z,6.27
2018-08-20T21:08:54.436Z,3.93
2018-08-20T21:11:23.215Z,3.80
2018-08-20T21:13:51.755Z,4.77
2018-08-20T21:16:24.841Z,3.70
2018-08-20T21:18:55.435Z,5.97
2018-08-20T21:21:24.879Z,3.90
2018-08-20T21:23:53.694Z,4.30
2018-08-20T21:26:22.516Z,6.77
2018-08-20T21:28:52.897Z,4.67
2018-08-20T21:31:28.705Z,3.40
2018-08-20T21:34:01.016Z,3.37
2018-08-20T21:36:29.557Z,3.87
2018-08-20T21:38:58.328Z,3.97
2018-08-20T21:41:28.586Z,6.10
2018-08-20T21:43:57.216Z,5.70
2018-08-20T21:46:25.820Z,5.77
2018-08-20T21:48:54.408Z,3.90
2018-08-20T21:51:34.038Z,6.60
2018-08-20T21:54:02.570Z,3.97
2018-08-20T21:57:03.701Z,3.83
2018-08-20T21:59:32.240Z,4.47
2018-08-20T22:02:00.824Z,3.27
2018-08-20T22:04:30.868Z,6.60
2018-08-20T22:07:00.657Z,5.10
2018-08-20T22:09:29.365Z,3.43
2018-08-20T22:11:58.648Z,4.70
2018-08-20T22:14:29.751Z,5.03
2018-08-20T22:17:00.841Z,3.90
2018-08-20T22:19:29.372Z,3.80
2018-08-20T22:21:58.976Z,4.73
2018-08-20T22:24:31.008Z,4.83
2018-08-20T22:27:01.609Z,3.97
2018-08-20T22:29:39.302Z,7.10
2018-08-20T22:32:08.997Z,4.67
2018-08-20T22:34:37.537Z,7.23
2018-08-20T22:37:07.086Z,5.67
2018-08-20T22:39:35.673Z,5.53
2018-08-20T22:42:04.415Z,4.00
2018-08-20T22:44:33.046Z,3.90
2018-08-20T22:47:01.563Z,4.50
2018-08-20T22:49:30.093Z,3.97
2018-08-20T22:51:58.656Z,5.70
2018-08-20T22:54:30.124Z,3.57
2018-08-20T22:56:59.254Z,5.63
2018-08-20T22:59:28.465Z,4.30
2018-08-20T23:02:00.545Z,4.07
2018-08-20T23:04:29.032Z,6.20
2018-08-20T23:06:59.832Z,4.57
2018-08-20T23:09:32.667Z,3.70
2018-08-20T23:12:01.480Z,4.93
2018-08-20T23:14:30.011Z,6.10
2018-08-20T23:16:58.573Z,4.37
2018-08-20T23:19:29.709Z,6.63
2018-08-20T23:21:58.226Z,4.53
2018-08-20T23:24:26.768Z,6.83
2018-08-20T23:26:55.270Z,5.27
2018-08-20T23:29:23.845Z,4.93
2018-08-20T23:31:52.374Z,6.23
2018-08-20T23:34:20.854Z,5.00
2018-08-20T23:36:49.353Z,5.67
2018-08-20T23:39:18.253Z,5.43
2018-08-20T23:41:46.761Z,7.37
2018-08-20T23:44:17.135Z,5.83
2018-08-20T23:46:51.019Z,6.47
2018-08-20T23:49:19.560Z,5.90
2018-08-20T23:51:48.148Z,5.80
2018-08-20T23:54:16.832Z,6.10
2018-08-20T23:56:45.433Z,7.83
2018-08-20T23:59:13.938Z,5.23
